Hauptseite
METAR-TAF:

METAR-TAF

Flughäfen :

Mailand, Italien

Flughafen Mailand-Malpensa

Breite: 45-37N, Länge: 008-44E, Höhe: 234 m

Beobachtung

Neuester Wetterbericht von vor 23 Minuten, um 09:50 UTC
Wind 5 kt aus Süd/Südost, variierte zwischen Ost/Südost und Süd/Südwest
Temperatur 22°C
Luftfeuchtigkeit 46%
Luftdruck 1029 hPa
Sichtweite 10 km oder mehr
keine Wolken unter 1500 m und keine Kumulonimbus oder Gewitterwolken

METAR: LIMC 190950Z 16005KT 120V200 CAVOK 22/10 Q1029 NOSIG

Zeit: 12:13 (10:13 UTC)

Prognose

Neuester Wetterbericht von vor 5 Stunden und 13 Minuten, um 05:00 UTC
Gültige Prognose vom 19 um 06 UTC bis 20 um 12 UTC
Wind 5 kt aus unterschiedlichen Richtungen
Sichtweite 10 km oder mehr
keine Wolken unter 1500 m und keine Kumulonimbus oder Gewitterwolken

TAF: LIMC 190500Z 1906/2012 VRB05KT CAVOK

Wetterbeobachtungen und Prognosen von mehr als 4000 Flughäfen (METAR und TAF Bericht).

Die verfügbaren Stationen werden durch gelbe und rote Markierungen auf der Karte dargestellt.

Führen Sie die Maus auf sie, um den Namen der Station zu sehen.

Darauf klicken, um die Beobachtung von Wetterbeobachtungen und Prognosen zu sehen.

Um die Karte zu ändern : klicken Sie auf den grünen Tasten mit einem schwarzen Kreuz Zum Vergrößern, auf den grünen Button mit einem Gedankenstrich zu verkleinern, oder auf die grünen Pfeile für benachbarte Karten.


METAR-TAF: